Bluff Springs, Texas
Current Conditions -  °F | °C
As of 3:53 PM on Friday 31 Oct 2014 (Local Time) from KAUS Reporting Station
Few Clouds Few Clouds  
Wind Chill: 24°   Ceiling: Unl
Heat Index: 24°   Visibility: 10mi
Dew Point:   Wind: 20mph
Humidity: 27%   Direction: 30°NNE
Pressure: 30.21"   Gusts: NA
Location:  30.1791°N, 97.7294°W
Report Text: KAUS 312053Z 03017KT 10SM FEW120 24/04 A3021 RMK AO2 SLP224 T02390039 56018
Loading
Personal Weather Stations






























Interactive Weather Map
Tropical Storm Tracking
New forecast layout! Learn more

10-Day Weather Forecast

Advertisements
Track Severe Weather on mobile